sensor_id;sensor_type;location;lat;lon;timestamp;pressure;altitude;pressure_sealevel;temperature;humidity
59951;BME280;45812;53.540;9.774;2023-05-09T00:00:24;102042.31;;;14.77;43.06
59951;BME280;45812;53.540;9.774;2023-05-09T00:02:49;102042.00;;;14.80;42.68
59951;BME280;45812;53.540;9.774;2023-05-09T00:05:15;102039.00;;;14.83;42.48
59951;BME280;45812;53.540;9.774;2023-05-09T00:07:40;102038.53;;;14.88;42.46
59951;BME280;45812;53.540;9.774;2023-05-09T00:10:06;102040.41;;;14.95;42.01
59951;BME280;45812;53.540;9.774;2023-05-09T00:12:31;102047.09;;;14.99;42.05
59951;BME280;45812;53.540;9.774;2023-05-09T00:14:57;102040.75;;;15.00;41.79
59951;BME280;45812;53.540;9.774;2023-05-09T00:17:23;102037.22;;;15.00;42.03
59951;BME280;45812;53.540;9.774;2023-05-09T00:19:49;102030.34;;;14.97;42.83
59951;BME280;45812;53.540;9.774;2023-05-09T00:22:16;102032.50;;;14.94;42.33
59951;BME280;45812;53.540;9.774;2023-05-09T00:24:42;102024.78;;;14.91;41.96
59951;BME280;45812;53.540;9.774;2023-05-09T00:27:07;102031.16;;;14.90;41.70
59951;BME280;45812;53.540;9.774;2023-05-09T00:29:32;102023.28;;;14.88;41.65
59951;BME280;45812;53.540;9.774;2023-05-09T00:31:57;102011.72;;;14.88;41.72
59951;BME280;45812;53.540;9.774;2023-05-09T00:34:23;102017.22;;;14.86;41.22
59951;BME280;45812;53.540;9.774;2023-05-09T00:36:48;102010.50;;;14.82;40.93
59951;BME280;45812;53.540;9.774;2023-05-09T00:39:14;102011.19;;;14.84;41.53
59951;BME280;45812;53.540;9.774;2023-05-09T00:41:39;102008.50;;;14.84;41.76
59951;BME280;45812;53.540;9.774;2023-05-09T00:44:05;102011.19;;;14.84;41.42
59951;BME280;45812;53.540;9.774;2023-05-09T00:46:31;101999.09;;;14.80;41.80
59951;BME280;45812;53.540;9.774;2023-05-09T00:48:56;101994.06;;;14.77;41.24
59951;BME280;45812;53.540;9.774;2023-05-09T00:51:22;101991.03;;;14.72;41.13
59951;BME280;45812;53.540;9.774;2023-05-09T00:53:47;101999.03;;;14.64;41.13
59951;BME280;45812;53.540;9.774;2023-05-09T00:56:13;101982.59;;;14.59;41.45
59951;BME280;45812;53.540;9.774;2023-05-09T00:58:39;101977.06;;;14.52;41.70
59951;BME280;45812;53.540;9.774;2023-05-09T01:01:05;101969.91;;;14.43;41.84
59951;BME280;45812;53.540;9.774;2023-05-09T01:03:30;101964.53;;;14.35;41.85
59951;BME280;45812;53.540;9.774;2023-05-09T01:06:12;101960.28;;;14.24;41.69
59951;BME280;45812;53.540;9.774;2023-05-09T01:11:32;101956.66;;;14.07;42.27
59951;BME280;45812;53.540;9.774;2023-05-09T01:14:23;101955.75;;;13.99;42.27
59951;BME280;45812;53.540;9.774;2023-05-09T01:17:01;101959.22;;;13.91;42.28
59951;BME280;45812;53.540;9.774;2023-05-09T01:19:46;101945.63;;;13.84;42.68
59951;BME280;45812;53.540;9.774;2023-05-09T01:22:17;101951.59;;;13.78;42.80
59951;BME280;45812;53.540;9.774;2023-05-09T01:25:00;101945.00;;;13.73;43.01
59951;BME280;45812;53.540;9.774;2023-05-09T01:27:39;101938.63;;;13.66;43.24
59951;BME280;45812;53.540;9.774;2023-05-09T01:30:11;101939.09;;;13.61;43.87
59951;BME280;45812;53.540;9.774;2023-05-09T01:32:37;101937.84;;;13.55;43.34
59951;BME280;45812;53.540;9.774;2023-05-09T01:35:04;101930.28;;;13.51;43.96
59951;BME280;45812;53.540;9.774;2023-05-09T01:37:33;101933.44;;;13.46;44.22
59951;BME280;45812;53.540;9.774;2023-05-09T01:40:06;101931.22;;;13.42;44.44
59951;BME280;45812;53.540;9.774;2023-05-09T01:42:47;101929.00;;;13.37;44.68
59951;BME280;45812;53.540;9.774;2023-05-09T01:45:14;101931.81;;;13.36;45.01
59951;BME280;45812;53.540;9.774;2023-05-09T01:47:41;101924.28;;;13.31;45.19
59951;BME280;45812;53.540;9.774;2023-05-09T01:50:08;101924.88;;;13.25;45.39
59951;BME280;45812;53.540;9.774;2023-05-09T01:52:36;101927.72;;;13.23;45.45
59951;BME280;45812;53.540;9.774;2023-05-09T01:55:03;101924.63;;;13.18;45.52
59951;BME280;45812;53.540;9.774;2023-05-09T01:57:29;101924.06;;;13.15;45.81
59951;BME280;45812;53.540;9.774;2023-05-09T01:59:56;101935.22;;;13.10;45.95
59951;BME280;45812;53.540;9.774;2023-05-09T02:02:24;101923.16;;;13.06;46.04
59951;BME280;45812;53.540;9.774;2023-05-09T02:04:50;101928.50;;;13.06;46.39
59951;BME280;45812;53.540;9.774;2023-05-09T02:07:16;101924.59;;;13.00;46.33
59951;BME280;45812;53.540;9.774;2023-05-09T02:09:41;101933.91;;;12.96;45.98
59951;BME280;45812;53.540;9.774;2023-05-09T02:12:07;101931.69;;;12.92;46.42
59951;BME280;45812;53.540;9.774;2023-05-09T02:14:32;101923.81;;;12.90;46.75
59951;BME280;45812;53.540;9.774;2023-05-09T02:16:59;101921.63;;;12.86;47.62
59951;BME280;45812;53.540;9.774;2023-05-09T02:19:30;101920.22;;;12.82;47.39
59951;BME280;45812;53.540;9.774;2023-05-09T02:21:55;101921.19;;;12.81;47.65
59951;BME280;45812;53.540;9.774;2023-05-09T02:24:21;101914.63;;;12.75;47.75
59951;BME280;45812;53.540;9.774;2023-05-09T02:26:46;101923.50;;;12.76;47.43
59951;BME280;45812;53.540;9.774;2023-05-09T02:29:12;101918.44;;;12.72;47.82
59951;BME280;45812;53.540;9.774;2023-05-09T02:31:39;101916.09;;;12.69;47.98
59951;BME280;45812;53.540;9.774;2023-05-09T02:34:05;101922.41;;;12.68;48.02
59951;BME280;45812;53.540;9.774;2023-05-09T02:36:31;101928.06;;;12.65;48.31
59951;BME280;45812;53.540;9.774;2023-05-09T02:38:57;101911.31;;;12.63;48.43
59951;BME280;45812;53.540;9.774;2023-05-09T02:41:25;101913.44;;;12.60;48.21
59951;BME280;45812;53.540;9.774;2023-05-09T02:43:52;101899.84;;;12.53;48.94
59951;BME280;45812;53.540;9.774;2023-05-09T02:46:17;101905.19;;;12.53;49.17
59951;BME280;45812;53.540;9.774;2023-05-09T02:48:42;101909.84;;;12.51;49.28
59951;BME280;45812;53.540;9.774;2023-05-09T02:51:08;101902.28;;;12.47;50.19
59951;BME280;45812;53.540;9.774;2023-05-09T02:53:33;101903.41;;;12.44;49.89
59951;BME280;45812;53.540;9.774;2023-05-09T02:55:58;101899.19;;;12.41;50.35
59951;BME280;45812;53.540;9.774;2023-05-09T02:58:23;101895.31;;;12.36;50.25
59951;BME280;45812;53.540;9.774;2023-05-09T03:00:49;101900.09;;;12.32;50.42
59951;BME280;45812;53.540;9.774;2023-05-09T03:03:15;101890.56;;;12.30;50.71
59951;BME280;45812;53.540;9.774;2023-05-09T03:05:41;101895.06;;;12.29;50.64
59951;BME280;45812;53.540;9.774;2023-05-09T03:08:07;101886.47;;;12.26;51.02
59951;BME280;45812;53.540;9.774;2023-05-09T03:10:32;101891.97;;;12.24;51.09
59951;BME280;45812;53.540;9.774;2023-05-09T03:12:58;101894.09;;;12.21;50.62
59951;BME280;45812;53.540;9.774;2023-05-09T03:15:23;101884.72;;;12.17;51.50
59951;BME280;45812;53.540;9.774;2023-05-09T03:17:48;101879.25;;;12.08;51.43
59951;BME280;45812;53.540;9.774;2023-05-09T03:20:14;101873.91;;;12.08;51.97
59951;BME280;45812;53.540;9.774;2023-05-09T03:22:39;101871.53;;;12.05;51.81
59951;BME280;45812;53.540;9.774;2023-05-09T03:25:05;101877.16;;;12.02;51.77
59951;BME280;45812;53.540;9.774;2023-05-09T03:27:30;101868.78;;;11.97;51.96
59951;BME280;45812;53.540;9.774;2023-05-09T03:29:56;101862.03;;;11.93;52.06
59951;BME280;45812;53.540;9.774;2023-05-09T03:32:21;101857.84;;;11.91;53.02
59951;BME280;45812;53.540;9.774;2023-05-09T03:34:46;101859.53;;;11.82;52.94
59951;BME280;45812;53.540;9.774;2023-05-09T03:37:12;101861.66;;;11.78;53.02
59951;BME280;45812;53.540;9.774;2023-05-09T03:39:37;101860.38;;;11.73;53.31
59951;BME280;45812;53.540;9.774;2023-05-09T03:42:02;101865.72;;;11.73;53.40
59951;BME280;45812;53.540;9.774;2023-05-09T03:44:27;101866.72;;;11.72;53.54
59951;BME280;45812;53.540;9.774;2023-05-09T03:46:53;101868.81;;;11.68;53.40
59951;BME280;45812;53.540;9.774;2023-05-09T03:49:18;101868.25;;;11.65;54.13
59951;BME280;45812;53.540;9.774;2023-05-09T03:51:43;101858.03;;;11.60;54.01
59951;BME280;45812;53.540;9.774;2023-05-09T03:54:08;101863.50;;;11.59;54.03
59951;BME280;45812;53.540;9.774;2023-05-09T03:56:34;101861.97;;;11.56;54.52
59951;BME280;45812;53.540;9.774;2023-05-09T03:58:59;101861.13;;;11.56;54.93
59951;BME280;45812;53.540;9.774;2023-05-09T04:01:24;101859.44;;;11.55;54.69
59951;BME280;45812;53.540;9.774;2023-05-09T04:03:50;101859.84;;;11.50;54.97
59951;BME280;45812;53.540;9.774;2023-05-09T04:06:16;101859.31;;;11.46;55.50
59951;BME280;45812;53.540;9.774;2023-05-09T04:08:42;101856.50;;;11.48;55.85
59951;BME280;45812;53.540;9.774;2023-05-09T04:11:07;101855.66;;;11.47;55.67
59951;BME280;45812;53.540;9.774;2023-05-09T04:13:33;101849.47;;;11.47;56.04
59951;BME280;45812;53.540;9.774;2023-05-09T04:15:58;101845.97;;;11.46;56.26
59951;BME280;45812;53.540;9.774;2023-05-09T04:18:24;101856.50;;;11.48;55.93
59951;BME280;45812;53.540;9.774;2023-05-09T04:20:49;101847.50;;;11.49;56.21
59951;BME280;45812;53.540;9.774;2023-05-09T04:23:14;101834.16;;;11.49;55.96
59951;BME280;45812;53.540;9.774;2023-05-09T04:25:39;101832.63;;;11.46;56.50
59951;BME280;45812;53.540;9.774;2023-05-09T04:28:05;101830.13;;;11.45;56.57
59951;BME280;45812;53.540;9.774;2023-05-09T04:30:30;101828.44;;;11.44;57.03
59951;BME280;45812;53.540;9.774;2023-05-09T04:32:55;101811.59;;;11.43;56.66
59951;BME280;45812;53.540;9.774;2023-05-09T04:35:21;101810.47;;;11.46;57.21
59951;BME280;45812;53.540;9.774;2023-05-09T04:37:46;101813.97;;;11.46;57.78
59951;BME280;45812;53.540;9.774;2023-05-09T04:40:11;101811.00;;;11.49;57.35
59951;BME280;45812;53.540;9.774;2023-05-09T04:42:37;101818.19;;;11.49;57.17
59951;BME280;45812;53.540;9.774;2023-05-09T04:45:03;101821.97;;;11.46;56.88
59951;BME280;45812;53.540;9.774;2023-05-09T04:47:28;101831.09;;;11.44;56.77
59951;BME280;45812;53.540;9.774;2023-05-09T04:49:53;101834.91;;;11.41;57.04
59951;BME280;45812;53.540;9.774;2023-05-09T04:52:19;101838.16;;;11.35;57.53
59951;BME280;45812;53.540;9.774;2023-05-09T04:54:44;101836.19;;;11.37;57.61
59951;BME280;45812;53.540;9.774;2023-05-09T04:57:09;101824.53;;;11.38;57.85
59951;BME280;45812;53.540;9.774;2023-05-09T04:59:35;101837.84;;;11.38;57.61
59951;BME280;45812;53.540;9.774;2023-05-09T05:02:00;101839.94;;;11.44;57.74
59951;BME280;45812;53.540;9.774;2023-05-09T05:04:26;101839.50;;;11.49;57.67
59951;BME280;45812;53.540;9.774;2023-05-09T05:06:52;101837.69;;;11.49;57.63
59951;BME280;45812;53.540;9.774;2023-05-09T05:09:17;101833.03;;;11.51;58.20
59951;BME280;45812;53.540;9.774;2023-05-09T05:11:42;101829.97;;;11.56;57.75
59951;BME280;45812;53.540;9.774;2023-05-09T05:14:07;101822.50;;;11.60;58.47
59951;BME280;45812;53.540;9.774;2023-05-09T05:16:33;101818.56;;;11.64;58.17
59951;BME280;45812;53.540;9.774;2023-05-09T05:18:58;101816.59;;;11.66;58.30
59951;BME280;45812;53.540;9.774;2023-05-09T05:21:23;101806.63;;;11.68;57.57
59951;BME280;45812;53.540;9.774;2023-05-09T05:23:48;101806.22;;;11.72;57.74
59951;BME280;45812;53.540;9.774;2023-05-09T05:26:14;101801.72;;;11.73;57.96
59951;BME280;45812;53.540;9.774;2023-05-09T05:28:39;101790.75;;;11.76;57.86
59951;BME280;45812;53.540;9.774;2023-05-09T05:31:04;101787.09;;;11.77;58.20
59951;BME280;45812;53.540;9.774;2023-05-09T05:33:29;101791.84;;;11.83;58.16
59951;BME280;45812;53.540;9.774;2023-05-09T05:35:55;101791.41;;;11.88;57.85
59951;BME280;45812;53.540;9.774;2023-05-09T05:38:20;101800.09;;;11.90;58.28
59951;BME280;45812;53.540;9.774;2023-05-09T05:40:45;101798.31;;;11.90;58.21
59951;BME280;45812;53.540;9.774;2023-05-09T05:43:10;101797.41;;;11.99;59.11
59951;BME280;45812;53.540;9.774;2023-05-09T05:45:36;101798.63;;;12.05;58.89
59951;BME280;45812;53.540;9.774;2023-05-09T05:48:01;101800.88;;;12.09;58.84
59951;BME280;45812;53.540;9.774;2023-05-09T05:50:27;101796.94;;;12.13;58.99
59951;BME280;45812;53.540;9.774;2023-05-09T05:52:52;101790.28;;;12.18;58.00
59951;BME280;45812;53.540;9.774;2023-05-09T05:55:17;101794.50;;;12.20;58.23
59951;BME280;45812;53.540;9.774;2023-05-09T05:57:43;101792.22;;;12.25;58.46
59951;BME280;45812;53.540;9.774;2023-05-09T06:00:08;101775.06;;;12.28;58.19
59951;BME280;45812;53.540;9.774;2023-05-09T06:02:35;101777.81;;;12.36;57.96
59951;BME280;45812;53.540;9.774;2023-05-09T06:05:00;101769.19;;;12.42;58.46
59951;BME280;45812;53.540;9.774;2023-05-09T06:07:27;101765.94;;;12.48;58.58
59951;BME280;45812;53.540;9.774;2023-05-09T06:09:52;101764.94;;;12.49;58.39
59951;BME280;45812;53.540;9.774;2023-05-09T06:12:18;101766.31;;;12.53;59.83
59951;BME280;45812;53.540;9.774;2023-05-09T06:14:43;101756.53;;;12.62;59.95
59951;BME280;45812;53.540;9.774;2023-05-09T06:17:08;101768.47;;;12.67;58.25
59951;BME280;45812;53.540;9.774;2023-05-09T06:19:33;101760.81;;;12.72;58.33
59951;BME280;45812;53.540;9.774;2023-05-09T06:21:59;101757.53;;;12.79;58.10
59951;BME280;45812;53.540;9.774;2023-05-09T06:24:24;101752.44;;;12.85;58.18
59951;BME280;45812;53.540;9.774;2023-05-09T06:26:49;101750.13;;;12.90;58.53
59951;BME280;45812;53.540;9.774;2023-05-09T06:29:15;101744.84;;;12.98;57.54
59951;BME280;45812;53.540;9.774;2023-05-09T06:31:40;101740.41;;;13.07;58.79
59951;BME280;45812;53.540;9.774;2023-05-09T06:34:06;101741.13;;;13.17;58.03
59951;BME280;45812;53.540;9.774;2023-05-09T06:36:32;101738.03;;;13.22;57.06
59951;BME280;45812;53.540;9.774;2023-05-09T06:38:58;101741.91;;;13.27;57.85
59951;BME280;45812;53.540;9.774;2023-05-09T06:41:24;101736.94;;;13.32;56.99
59951;BME280;45812;53.540;9.774;2023-05-09T06:43:50;101736.00;;;13.42;56.83
59951;BME280;45812;53.540;9.774;2023-05-09T06:46:15;101730.34;;;13.53;56.62
59951;BME280;45812;53.540;9.774;2023-05-09T06:48:40;101739.13;;;13.63;56.49
59951;BME280;45812;53.540;9.774;2023-05-09T06:51:05;101724.75;;;13.72;55.51
59951;BME280;45812;53.540;9.774;2023-05-09T06:53:31;101720.13;;;13.82;55.78
59951;BME280;45812;53.540;9.774;2023-05-09T06:55:56;101731.22;;;13.96;57.19
59951;BME280;45812;53.540;9.774;2023-05-09T06:58:21;101720.03;;;14.08;56.47
59951;BME280;45812;53.540;9.774;2023-05-09T07:00:47;101716.72;;;14.22;56.80
59951;BME280;45812;53.540;9.774;2023-05-09T07:03:12;101718.94;;;14.35;54.25
59951;BME280;45812;53.540;9.774;2023-05-09T07:05:37;101706.75;;;14.49;54.77
59951;BME280;45812;53.540;9.774;2023-05-09T07:08:03;101698.72;;;14.57;53.59
59951;BME280;45812;53.540;9.774;2023-05-09T07:10:28;101703.91;;;14.67;53.67
59951;BME280;45812;53.540;9.774;2023-05-09T07:12:53;101699.41;;;14.75;52.43
59951;BME280;45812;53.540;9.774;2023-05-09T07:15:19;101701.72;;;14.87;52.79
59951;BME280;45812;53.540;9.774;2023-05-09T07:17:44;101699.38;;;15.00;53.08
59951;BME280;45812;53.540;9.774;2023-05-09T07:20:10;101696.50;;;15.18;53.90
59951;BME280;45812;53.540;9.774;2023-05-09T07:22:35;101691.94;;;15.34;52.71
59951;BME280;45812;53.540;9.774;2023-05-09T07:25:00;101691.91;;;15.42;51.32
59951;BME280;45812;53.540;9.774;2023-05-09T07:27:26;101686.69;;;15.49;51.18
59951;BME280;45812;53.540;9.774;2023-05-09T07:29:51;101687.50;;;15.58;50.32
59951;BME280;45812;53.540;9.774;2023-05-09T07:32:19;101674.75;;;15.60;51.08
59951;BME280;45812;53.540;9.774;2023-05-09T07:34:45;101667.34;;;15.70;51.40
59951;BME280;45812;53.540;9.774;2023-05-09T07:37:10;101668.81;;;15.81;50.45
59951;BME280;45812;53.540;9.774;2023-05-09T07:39:35;101657.53;;;15.85;50.04
59951;BME280;45812;53.540;9.774;2023-05-09T07:42:00;101655.34;;;15.89;50.93
59951;BME280;45812;53.540;9.774;2023-05-09T07:44:26;101656.94;;;15.98;52.20
59951;BME280;45812;53.540;9.774;2023-05-09T07:46:51;101659.59;;;16.06;52.45
59951;BME280;45812;53.540;9.774;2023-05-09T07:49:18;101653.16;;;16.15;51.82
59951;BME280;45812;53.540;9.774;2023-05-09T07:51:43;101647.56;;;16.25;50.85
59951;BME280;45812;53.540;9.774;2023-05-09T07:54:09;101640.63;;;16.30;50.36
59951;BME280;45812;53.540;9.774;2023-05-09T07:56:34;101636.38;;;16.36;51.32
59951;BME280;45812;53.540;9.774;2023-05-09T07:58:59;101634.66;;;16.43;51.17
59951;BME280;45812;53.540;9.774;2023-05-09T08:01:24;101636.31;;;16.44;50.30
59951;BME280;45812;53.540;9.774;2023-05-09T08:03:50;101638.81;;;16.46;50.33
59951;BME280;45812;53.540;9.774;2023-05-09T08:06:15;101632.72;;;16.52;50.37
59951;BME280;45812;53.540;9.774;2023-05-09T08:08:41;101626.63;;;16.58;51.19
59951;BME280;45812;53.540;9.774;2023-05-09T08:11:06;101628.25;;;16.67;50.13
59951;BME280;45812;53.540;9.774;2023-05-09T08:13:31;101628.69;;;16.71;49.93
59951;BME280;45812;53.540;9.774;2023-05-09T08:15:56;101623.25;;;16.79;49.87
59951;BME280;45812;53.540;9.774;2023-05-09T08:18:22;101622.06;;;16.81;49.53
59951;BME280;45812;53.540;9.774;2023-05-09T08:20:48;101621.31;;;16.87;49.89
59951;BME280;45812;53.540;9.774;2023-05-09T08:23:13;101616.25;;;16.92;49.31
59951;BME280;45812;53.540;9.774;2023-05-09T08:25:38;101611.97;;;16.98;50.40
59951;BME280;45812;53.540;9.774;2023-05-09T08:28:03;101614.94;;;17.03;49.22
59951;BME280;45812;53.540;9.774;2023-05-09T08:30:29;101610.00;;;17.07;49.93
59951;BME280;45812;53.540;9.774;2023-05-09T08:32:54;101601.75;;;17.08;48.54
59951;BME280;45812;53.540;9.774;2023-05-09T08:35:20;101600.19;;;17.14;49.16
59951;BME280;45812;53.540;9.774;2023-05-09T08:37:45;101602.78;;;17.22;48.45
59951;BME280;45812;53.540;9.774;2023-05-09T08:40:12;101600.91;;;17.22;48.69
59951;BME280;45812;53.540;9.774;2023-05-09T08:42:37;101591.38;;;17.20;49.19
59951;BME280;45812;53.540;9.774;2023-05-09T08:45:09;101581.25;;;17.22;48.98
59951;BME280;45812;53.540;9.774;2023-05-09T08:47:36;101591.00;;;17.23;48.66
59951;BME280;45812;53.540;9.774;2023-05-09T08:50:03;101583.47;;;17.33;48.85
59951;BME280;45812;53.540;9.774;2023-05-09T08:52:29;101575.47;;;17.40;47.97
59951;BME280;45812;53.540;9.774;2023-05-09T08:54:56;101579.81;;;17.55;49.98
59951;BME280;45812;53.540;9.774;2023-05-09T08:57:21;101571.34;;;17.73;49.32
59951;BME280;45812;53.540;9.774;2023-05-09T08:59:48;101564.03;;;17.89;46.84
59951;BME280;45812;53.540;9.774;2023-05-09T09:02:13;101570.56;;;18.01;47.75
59951;BME280;45812;53.540;9.774;2023-05-09T09:04:38;101566.53;;;18.11;47.90
59951;BME280;45812;53.540;9.774;2023-05-09T09:07:05;101558.56;;;18.25;46.80
59951;BME280;45812;53.540;9.774;2023-05-09T09:09:31;101559.28;;;18.40;47.00
59951;BME280;45812;53.540;9.774;2023-05-09T09:11:58;101557.78;;;18.59;48.15
59951;BME280;45812;53.540;9.774;2023-05-09T09:14:26;101554.59;;;18.76;49.17
59951;BME280;45812;53.540;9.774;2023-05-09T09:16:54;101555.94;;;18.94;46.10
59951;BME280;45812;53.540;9.774;2023-05-09T09:19:21;101556.44;;;19.04;46.06
59951;BME280;45812;53.540;9.774;2023-05-09T09:21:52;101555.00;;;19.15;43.59
59951;BME280;45812;53.540;9.774;2023-05-09T09:24:21;101553.19;;;19.22;43.93
59951;BME280;45812;53.540;9.774;2023-05-09T09:26:48;101545.78;;;19.37;44.10
59951;BME280;45812;53.540;9.774;2023-05-09T09:29:13;101542.47;;;19.48;43.73
59951;BME280;45812;53.540;9.774;2023-05-09T09:31:43;101544.63;;;19.66;42.27
59951;BME280;45812;53.540;9.774;2023-05-09T09:34:10;101541.34;;;19.77;41.90
59951;BME280;45812;53.540;9.774;2023-05-09T09:36:36;101535.97;;;19.90;42.82
59951;BME280;45812;53.540;9.774;2023-05-09T09:39:03;101540.56;;;20.10;42.21
59951;BME280;45812;53.540;9.774;2023-05-09T09:41:30;101529.09;;;20.34;41.74
59951;BME280;45812;53.540;9.774;2023-05-09T09:43:56;101528.47;;;20.59;38.60
59951;BME280;45812;53.540;9.774;2023-05-09T09:46:21;101518.50;;;20.66;38.41
59951;BME280;45812;53.540;9.774;2023-05-09T09:48:46;101499.72;;;20.84;38.02
59951;BME280;45812;53.540;9.774;2023-05-09T09:51:16;101501.25;;;21.11;37.58
59951;BME280;45812;53.540;9.774;2023-05-09T09:53:43;101505.34;;;21.34;36.25
59951;BME280;45812;53.540;9.774;2023-05-09T09:56:09;101496.03;;;21.61;36.28
59951;BME280;45812;53.540;9.774;2023-05-09T09:58:34;101502.28;;;21.87;35.09
59951;BME280;45812;53.540;9.774;2023-05-09T10:01:18;101498.97;;;22.16;34.41
59951;BME280;45812;53.540;9.774;2023-05-09T10:03:44;101486.09;;;22.48;33.80
59951;BME280;45812;53.540;9.774;2023-05-09T10:06:11;101487.50;;;22.94;33.77
59951;BME280;45812;53.540;9.774;2023-05-09T10:08:38;101497.09;;;23.45;32.58
59951;BME280;45812;53.540;9.774;2023-05-09T10:11:03;101480.53;;;23.76;32.08
59951;BME280;45812;53.540;9.774;2023-05-09T10:13:29;101481.16;;;24.13;31.40
59951;BME280;45812;53.540;9.774;2023-05-09T10:15:56;101467.41;;;24.67;31.38
59951;BME280;45812;53.540;9.774;2023-05-09T10:18:26;101463.00;;;25.29;30.29
59951;BME280;45812;53.540;9.774;2023-05-09T10:20:52;101456.03;;;26.01;28.67
59951;BME280;45812;53.540;9.774;2023-05-09T10:23:19;101454.78;;;26.64;28.89
59951;BME280;45812;53.540;9.774;2023-05-09T10:25:53;101454.16;;;27.27;27.73
59951;BME280;45812;53.540;9.774;2023-05-09T10:28:26;101458.69;;;27.70;26.77
59951;BME280;45812;53.540;9.774;2023-05-09T10:31:18;101454.75;;;28.25;24.60
59951;BME280;45812;53.540;9.774;2023-05-09T10:33:47;101442.88;;;28.57;23.88
59951;BME280;45812;53.540;9.774;2023-05-09T10:36:16;101443.03;;;28.92;23.75
59951;BME280;45812;53.540;9.774;2023-05-09T10:38:42;101427.72;;;29.17;22.67
59951;BME280;45812;53.540;9.774;2023-05-09T10:41:09;101433.81;;;29.39;22.77
59951;BME280;45812;53.540;9.774;2023-05-09T10:43:34;101421.50;;;29.57;22.84
59951;BME280;45812;53.540;9.774;2023-05-09T10:46:01;101416.81;;;29.73;22.69
59951;BME280;45812;53.540;9.774;2023-05-09T10:48:26;101403.59;;;30.21;22.26
59951;BME280;45812;53.540;9.774;2023-05-09T10:50:53;101402.66;;;31.05;21.52
59951;BME280;45812;53.540;9.774;2023-05-09T10:53:19;101393.91;;;31.71;20.89
59951;BME280;45812;53.540;9.774;2023-05-09T10:55:56;101401.69;;;32.65;19.51
59951;BME280;45812;53.540;9.774;2023-05-09T10:58:27;101391.41;;;33.46;18.45
59951;BME280;45812;53.540;9.774;2023-05-09T11:00:55;101385.53;;;33.52;18.38
59951;BME280;45812;53.540;9.774;2023-05-09T11:03:21;101382.44;;;34.00;18.68
59951;BME280;45812;53.540;9.774;2023-05-09T11:05:50;101374.28;;;35.00;17.19
59951;BME280;45812;53.540;9.774;2023-05-09T11:08:24;101361.25;;;35.45;16.16
59951;BME280;45812;53.540;9.774;2023-05-09T11:10:53;101368.69;;;35.89;16.31
59951;BME280;45812;53.540;9.774;2023-05-09T11:13:24;101363.66;;;36.48;15.69
59951;BME280;45812;53.540;9.774;2023-05-09T11:18:17;101350.97;;;37.08;15.54
59951;BME280;45812;53.540;9.774;2023-05-09T11:20:44;101353.19;;;37.49;15.62
59951;BME280;45812;53.540;9.774;2023-05-09T11:23:10;101336.75;;;38.11;14.97
59951;BME280;45812;53.540;9.774;2023-05-09T11:25:40;101332.97;;;38.25;15.04
59951;BME280;45812;53.540;9.774;2023-05-09T11:28:06;101326.41;;;38.50;14.21
59951;BME280;45812;53.540;9.774;2023-05-09T11:30:43;101319.00;;;38.54;14.58
59951;BME280;45812;53.540;9.774;2023-05-09T11:33:27;101314.94;;;38.93;13.17
59951;BME280;45812;53.540;9.774;2023-05-09T11:39:04;101314.16;;;39.38;12.72
59951;BME280;45812;53.540;9.774;2023-05-09T11:41:30;101309.72;;;39.25;12.66
59951;BME280;45812;53.540;9.774;2023-05-09T11:44:01;101307.03;;;39.61;13.05
59951;BME280;45812;53.540;9.774;2023-05-09T11:46:26;101312.25;;;39.87;12.67
59951;BME280;45812;53.540;9.774;2023-05-09T11:48:52;101302.84;;;39.80;12.16
59951;BME280;45812;53.540;9.774;2023-05-09T11:51:18;101303.06;;;40.11;12.82
59951;BME280;45812;53.540;9.774;2023-05-09T11:53:52;101297.13;;;40.25;13.09
59951;BME280;45812;53.540;9.774;2023-05-09T11:56:18;101292.38;;;40.66;12.80
59951;BME280;45812;53.540;9.774;2023-05-09T11:58:43;101293.31;;;40.17;12.52
59951;BME280;45812;53.540;9.774;2023-05-09T12:01:10;101291.75;;;40.32;12.58
59951;BME280;45812;53.540;9.774;2023-05-09T12:03:42;101285.72;;;40.42;11.89
59951;BME280;45812;53.540;9.774;2023-05-09T12:06:07;101286.16;;;40.84;12.66
59951;BME280;45812;53.540;9.774;2023-05-09T12:08:33;101283.34;;;41.12;11.82
59951;BME280;45812;53.540;9.774;2023-05-09T12:11:07;101274.59;;;41.14;10.88
59951;BME280;45812;53.540;9.774;2023-05-09T12:13:32;101276.16;;;40.71;11.76
59951;BME280;45812;53.540;9.774;2023-05-09T12:16:00;101275.78;;;40.05;12.12
59951;BME280;45812;53.540;9.774;2023-05-09T12:18:25;101271.94;;;39.60;12.67
59951;BME280;45812;53.540;9.774;2023-05-09T12:20:50;101269.66;;;39.17;12.48
59951;BME280;45812;53.540;9.774;2023-05-09T12:23:16;101268.47;;;38.52;12.71
59951;BME280;45812;53.540;9.774;2023-05-09T12:25:52;101267.19;;;38.50;12.64
59951;BME280;45812;53.540;9.774;2023-05-09T12:28:19;101266.09;;;38.42;12.84
59951;BME280;45812;53.540;9.774;2023-05-09T12:30:45;101259.03;;;38.65;13.15
59951;BME280;45812;53.540;9.774;2023-05-09T12:33:10;101258.13;;;39.06;12.94
59951;BME280;45812;53.540;9.774;2023-05-09T12:35:38;101249.78;;;39.52;12.55
59951;BME280;45812;53.540;9.774;2023-05-09T12:38:03;101263.00;;;39.55;12.44
59951;BME280;45812;53.540;9.774;2023-05-09T12:40:28;101251.47;;;39.93;12.72
59951;BME280;45812;53.540;9.774;2023-05-09T12:42:56;101257.34;;;40.28;12.30
59951;BME280;45812;53.540;9.774;2023-05-09T12:45:25;101247.31;;;40.79;11.67
59951;BME280;45812;53.540;9.774;2023-05-09T12:47:51;101245.38;;;40.96;11.56
59951;BME280;45812;53.540;9.774;2023-05-09T12:50:17;101255.47;;;40.44;12.05
59951;BME280;45812;53.540;9.774;2023-05-09T12:52:42;101247.72;;;40.25;11.29
59951;BME280;45812;53.540;9.774;2023-05-09T12:55:09;101239.88;;;40.03;11.51